sensor_id;sensor_type;location;lat;lon;timestamp;temperature;humidity
13223;DHT22;6676;45.192;5.722;2023-04-01T00:01:48;11.10;99.90
13223;DHT22;6676;45.192;5.722;2023-04-01T00:04:39;11.10;99.90
13223;DHT22;6676;45.192;5.722;2023-04-01T00:07:31;11.10;99.90
13223;DHT22;6676;45.192;5.722;2023-04-01T00:10:22;11.10;99.90
13223;DHT22;6676;45.192;5.722;2023-04-01T00:13:14;11.00;99.90
13223;DHT22;6676;45.192;5.722;2023-04-01T00:16:07;11.00;99.90
13223;DHT22;6676;45.192;5.722;2023-04-01T00:19:00;11.00;99.90
13223;DHT22;6676;45.192;5.722;2023-04-01T00:21:53;11.00;99.90
13223;DHT22;6676;45.192;5.722;2023-04-01T00:24:44;10.90;99.90
13223;DHT22;6676;45.192;5.722;2023-04-01T00:27:36;10.80;99.90
13223;DHT22;6676;45.192;5.722;2023-04-01T00:30:28;10.80;99.90
13223;DHT22;6676;45.192;5.722;2023-04-01T00:33:20;10.60;99.90
13223;DHT22;6676;45.192;5.722;2023-04-01T00:36:12;10.60;99.90
13223;DHT22;6676;45.192;5.722;2023-04-01T00:39:04;10.40;99.90
13223;DHT22;6676;45.192;5.722;2023-04-01T00:41:56;10.30;99.90
13223;DHT22;6676;45.192;5.722;2023-04-01T00:44:51;10.30;99.90
13223;DHT22;6676;45.192;5.722;2023-04-01T00:47:43;10.20;99.90
13223;DHT22;6676;45.192;5.722;2023-04-01T00:50:35;10.20;99.90
13223;DHT22;6676;45.192;5.722;2023-04-01T00:53:29;10.20;99.90
13223;DHT22;6676;45.192;5.722;2023-04-01T00:59:05;10.10;99.90
13223;DHT22;6676;45.192;5.722;2023-04-01T01:01:58;10.10;99.90
13223;DHT22;6676;45.192;5.722;2023-04-01T01:04:49;10.10;99.90
13223;DHT22;6676;45.192;5.722;2023-04-01T01:07:44;10.10;99.90
13223;DHT22;6676;45.192;5.722;2023-04-01T01:10:37;10.20;99.90
13223;DHT22;6676;45.192;5.722;2023-04-01T01:13:32;10.10;99.90
13223;DHT22;6676;45.192;5.722;2023-04-01T01:19:17;10.20;99.90
13223;DHT22;6676;45.192;5.722;2023-04-01T01:22:18;10.20;99.90
13223;DHT22;6676;45.192;5.722;2023-04-01T01:25:17;10.20;99.90
13223;DHT22;6676;45.192;5.722;2023-04-01T01:28:28;10.20;99.90
13223;DHT22;6676;45.192;5.722;2023-04-01T01:31:22;10.20;99.90
13223;DHT22;6676;45.192;5.722;2023-04-01T01:34:19;10.20;99.90
13223;DHT22;6676;45.192;5.722;2023-04-01T01:37:12;10.10;99.90
13223;DHT22;6676;45.192;5.722;2023-04-01T01:40:09;10.20;99.90
13223;DHT22;6676;45.192;5.722;2023-04-01T01:43:03;10.20;99.90
13223;DHT22;6676;45.192;5.722;2023-04-01T01:45:58;10.30;99.90
13223;DHT22;6676;45.192;5.722;2023-04-01T01:48:52;10.20;99.90
13223;DHT22;6676;45.192;5.722;2023-04-01T01:51:45;10.30;99.90
13223;DHT22;6676;45.192;5.722;2023-04-01T01:54:49;10.20;99.90
13223;DHT22;6676;45.192;5.722;2023-04-01T01:57:44;10.20;99.90
13223;DHT22;6676;45.192;5.722;2023-04-01T02:00:37;10.10;99.90
13223;DHT22;6676;45.192;5.722;2023-04-01T02:03:33;10.20;99.90
13223;DHT22;6676;45.192;5.722;2023-04-01T02:06:28;10.20;99.90
13223;DHT22;6676;45.192;5.722;2023-04-01T02:09:19;10.20;99.90
13223;DHT22;6676;45.192;5.722;2023-04-01T02:12:13;10.10;99.90
13223;DHT22;6676;45.192;5.722;2023-04-01T02:15:08;10.10;99.90
13223;DHT22;6676;45.192;5.722;2023-04-01T02:18:01;10.10;99.90
13223;DHT22;6676;45.192;5.722;2023-04-01T02:20:54;10.20;99.90
13223;DHT22;6676;45.192;5.722;2023-04-01T02:23:46;10.20;99.90
13223;DHT22;6676;45.192;5.722;2023-04-01T02:26:38;10.30;99.90
13223;DHT22;6676;45.192;5.722;2023-04-01T02:29:30;10.40;99.90
13223;DHT22;6676;45.192;5.722;2023-04-01T02:32:22;10.40;99.90
13223;DHT22;6676;45.192;5.722;2023-04-01T02:35:16;10.40;99.90
13223;DHT22;6676;45.192;5.722;2023-04-01T02:38:08;10.40;99.90
13223;DHT22;6676;45.192;5.722;2023-04-01T02:41:05;10.40;99.90
13223;DHT22;6676;45.192;5.722;2023-04-01T02:43:56;10.40;99.90
13223;DHT22;6676;45.192;5.722;2023-04-01T02:46:49;10.40;99.90
13223;DHT22;6676;45.192;5.722;2023-04-01T02:49:41;10.40;99.90
13223;DHT22;6676;45.192;5.722;2023-04-01T02:52:32;10.30;99.90
13223;DHT22;6676;45.192;5.722;2023-04-01T02:55:23;10.30;99.90
13223;DHT22;6676;45.192;5.722;2023-04-01T02:58:15;10.30;99.90
13223;DHT22;6676;45.192;5.722;2023-04-01T03:01:06;10.30;99.90
13223;DHT22;6676;45.192;5.722;2023-04-01T03:03:58;10.40;99.90
13223;DHT22;6676;45.192;5.722;2023-04-01T03:06:49;10.40;99.90
13223;DHT22;6676;45.192;5.722;2023-04-01T03:09:41;10.30;99.90
13223;DHT22;6676;45.192;5.722;2023-04-01T03:12:32;10.30;99.90
13223;DHT22;6676;45.192;5.722;2023-04-01T03:15:24;10.40;99.90
13223;DHT22;6676;45.192;5.722;2023-04-01T03:18:16;10.40;99.90
13223;DHT22;6676;45.192;5.722;2023-04-01T03:21:15;10.40;99.90
13223;DHT22;6676;45.192;5.722;2023-04-01T03:24:07;10.40;99.90
13223;DHT22;6676;45.192;5.722;2023-04-01T03:26:59;10.30;99.90
13223;DHT22;6676;45.192;5.722;2023-04-01T03:29:51;10.20;99.90
13223;DHT22;6676;45.192;5.722;2023-04-01T03:32:42;10.20;99.90
13223;DHT22;6676;45.192;5.722;2023-04-01T03:35:34;10.20;99.90
13223;DHT22;6676;45.192;5.722;2023-04-01T03:38:26;10.10;99.90
13223;DHT22;6676;45.192;5.722;2023-04-01T03:41:18;10.10;99.90
13223;DHT22;6676;45.192;5.722;2023-04-01T03:44:09;10.10;99.90
13223;DHT22;6676;45.192;5.722;2023-04-01T03:49:39;10.10;99.90
13223;DHT22;6676;45.192;5.722;2023-04-01T03:52:31;10.10;99.90
13223;DHT22;6676;45.192;5.722;2023-04-01T03:55:22;10.10;99.90
13223;DHT22;6676;45.192;5.722;2023-04-01T03:58:14;10.10;99.90
13223;DHT22;6676;45.192;5.722;2023-04-01T04:01:13;10.10;99.90
13223;DHT22;6676;45.192;5.722;2023-04-01T04:04:05;10.20;99.90
13223;DHT22;6676;45.192;5.722;2023-04-01T04:06:57;10.10;99.90
13223;DHT22;6676;45.192;5.722;2023-04-01T04:09:50;10.10;99.90
13223;DHT22;6676;45.192;5.722;2023-04-01T04:12:41;10.10;99.90
13223;DHT22;6676;45.192;5.722;2023-04-01T04:15:32;10.10;99.90
13223;DHT22;6676;45.192;5.722;2023-04-01T04:18:24;10.10;99.90
13223;DHT22;6676;45.192;5.722;2023-04-01T04:21:16;10.10;99.90
13223;DHT22;6676;45.192;5.722;2023-04-01T04:24:08;10.10;99.90
13223;DHT22;6676;45.192;5.722;2023-04-01T04:27:16;10.10;99.90
13223;DHT22;6676;45.192;5.722;2023-04-01T04:30:10;10.10;99.90
13223;DHT22;6676;45.192;5.722;2023-04-01T04:33:02;10.00;99.90
13223;DHT22;6676;45.192;5.722;2023-04-01T04:38:36;9.70;99.90
13223;DHT22;6676;45.192;5.722;2023-04-01T04:41:27;9.70;99.90
13223;DHT22;6676;45.192;5.722;2023-04-01T04:44:19;9.80;99.90
13223;DHT22;6676;45.192;5.722;2023-04-01T04:47:10;9.80;99.90
13223;DHT22;6676;45.192;5.722;2023-04-01T04:50:02;9.90;99.90
13223;DHT22;6676;45.192;5.722;2023-04-01T04:52:53;10.00;99.90
13223;DHT22;6676;45.192;5.722;2023-04-01T04:55:46;10.00;99.90
13223;DHT22;6676;45.192;5.722;2023-04-01T04:58:48;10.10;99.90
13223;DHT22;6676;45.192;5.722;2023-04-01T05:01:41;10.10;99.90
13223;DHT22;6676;45.192;5.722;2023-04-01T05:04:36;10.10;99.90
13223;DHT22;6676;45.192;5.722;2023-04-01T05:07:30;10.00;99.90
13223;DHT22;6676;45.192;5.722;2023-04-01T05:10:22;9.90;99.90
13223;DHT22;6676;45.192;5.722;2023-04-01T05:13:13;10.00;99.90
13223;DHT22;6676;45.192;5.722;2023-04-01T05:16:09;10.00;99.90
13223;DHT22;6676;45.192;5.722;2023-04-01T05:19:01;10.10;99.90
13223;DHT22;6676;45.192;5.722;2023-04-01T05:21:53;10.10;99.90
13223;DHT22;6676;45.192;5.722;2023-04-01T05:24:45;10.20;99.90
13223;DHT22;6676;45.192;5.722;2023-04-01T05:27:37;10.20;99.90
13223;DHT22;6676;45.192;5.722;2023-04-01T05:30:28;10.20;99.90
13223;DHT22;6676;45.192;5.722;2023-04-01T05:33:21;10.20;99.90
13223;DHT22;6676;45.192;5.722;2023-04-01T05:36:15;10.20;99.90
13223;DHT22;6676;45.192;5.722;2023-04-01T05:39:07;10.20;99.90
13223;DHT22;6676;45.192;5.722;2023-04-01T05:41:59;10.20;99.90
13223;DHT22;6676;45.192;5.722;2023-04-01T05:44:51;10.20;99.90
13223;DHT22;6676;45.192;5.722;2023-04-01T05:48:00;10.10;99.90
13223;DHT22;6676;45.192;5.722;2023-04-01T05:50:53;9.90;99.90
13223;DHT22;6676;45.192;5.722;2023-04-01T05:53:45;9.70;99.90
13223;DHT22;6676;45.192;5.722;2023-04-01T05:56:36;9.70;99.90
13223;DHT22;6676;45.192;5.722;2023-04-01T05:59:27;9.60;99.90
13223;DHT22;6676;45.192;5.722;2023-04-01T06:05:10;9.80;99.90
13223;DHT22;6676;45.192;5.722;2023-04-01T06:08:08;9.70;99.90
13223;DHT22;6676;45.192;5.722;2023-04-01T06:11:04;9.70;99.90
13223;DHT22;6676;45.192;5.722;2023-04-01T06:14:05;9.70;99.90
13223;DHT22;6676;45.192;5.722;2023-04-01T06:17:05;9.70;99.90
13223;DHT22;6676;45.192;5.722;2023-04-01T06:20:00;9.80;99.90
13223;DHT22;6676;45.192;5.722;2023-04-01T06:23:18;9.80;99.90
13223;DHT22;6676;45.192;5.722;2023-04-01T06:26:17;9.80;99.90
13223;DHT22;6676;45.192;5.722;2023-04-01T06:29:27;9.80;99.90
13223;DHT22;6676;45.192;5.722;2023-04-01T06:32:43;10.10;99.90
13223;DHT22;6676;45.192;5.722;2023-04-01T06:35:51;10.10;99.90
13223;DHT22;6676;45.192;5.722;2023-04-01T06:38:45;10.20;99.90
13223;DHT22;6676;45.192;5.722;2023-04-01T06:42:03;10.40;99.90
13223;DHT22;6676;45.192;5.722;2023-04-01T06:45:02;10.50;99.90
13223;DHT22;6676;45.192;5.722;2023-04-01T06:48:23;10.70;99.90
13223;DHT22;6676;45.192;5.722;2023-04-01T06:51:39;10.70;99.90
13223;DHT22;6676;45.192;5.722;2023-04-01T06:54:39;10.80;99.90
13223;DHT22;6676;45.192;5.722;2023-04-01T06:57:52;10.90;99.90
13223;DHT22;6676;45.192;5.722;2023-04-01T07:06:14;11.00;99.90
13223;DHT22;6676;45.192;5.722;2023-04-01T07:09:10;11.10;99.90
13223;DHT22;6676;45.192;5.722;2023-04-01T07:12:25;11.10;99.90
13223;DHT22;6676;45.192;5.722;2023-04-01T07:15:25;10.90;99.90
13223;DHT22;6676;45.192;5.722;2023-04-01T07:18:21;10.90;99.90
13223;DHT22;6676;45.192;5.722;2023-04-01T07:21:17;11.00;99.90
13223;DHT22;6676;45.192;5.722;2023-04-01T07:24:13;11.20;99.90
13223;DHT22;6676;45.192;5.722;2023-04-01T07:27:09;11.40;99.90
13223;DHT22;6676;45.192;5.722;2023-04-01T07:30:03;11.50;99.90
13223;DHT22;6676;45.192;5.722;2023-04-01T07:32:57;11.60;99.90
13223;DHT22;6676;45.192;5.722;2023-04-01T07:35:52;11.70;99.90
13223;DHT22;6676;45.192;5.722;2023-04-01T07:41:32;11.90;99.90
13223;DHT22;6676;45.192;5.722;2023-04-01T07:47:32;11.70;99.90
13223;DHT22;6676;45.192;5.722;2023-04-01T07:50:27;11.80;99.90
13223;DHT22;6676;45.192;5.722;2023-04-01T07:53:22;11.90;99.90
13223;DHT22;6676;45.192;5.722;2023-04-01T07:56:18;12.00;99.90
13223;DHT22;6676;45.192;5.722;2023-04-01T07:59:14;12.10;99.90
13223;DHT22;6676;45.192;5.722;2023-04-01T08:02:18;11.90;99.90
13223;DHT22;6676;45.192;5.722;2023-04-01T08:07:58;11.90;99.90
13223;DHT22;6676;45.192;5.722;2023-04-01T08:10:57;12.00;99.90
13223;DHT22;6676;45.192;5.722;2023-04-01T08:14:11;11.90;99.90
13223;DHT22;6676;45.192;5.722;2023-04-01T08:17:24;11.70;99.90
13223;DHT22;6676;45.192;5.722;2023-04-01T08:20:25;11.80;99.90
13223;DHT22;6676;45.192;5.722;2023-04-01T08:23:19;11.90;99.90
13223;DHT22;6676;45.192;5.722;2023-04-01T08:26:15;11.90;99.90
13223;DHT22;6676;45.192;5.722;2023-04-01T08:29:10;11.70;99.90
13223;DHT22;6676;45.192;5.722;2023-04-01T08:32:05;11.70;99.90
13223;DHT22;6676;45.192;5.722;2023-04-01T08:35:01;11.70;99.90
13223;DHT22;6676;45.192;5.722;2023-04-01T08:37:55;11.70;99.90
13223;DHT22;6676;45.192;5.722;2023-04-01T08:40:59;11.90;99.90
13223;DHT22;6676;45.192;5.722;2023-04-01T08:44:12;12.00;99.90
13223;DHT22;6676;45.192;5.722;2023-04-01T08:50:49;12.00;99.90
13223;DHT22;6676;45.192;5.722;2023-04-01T08:54:11;12.10;99.90
13223;DHT22;6676;45.192;5.722;2023-04-01T08:57:06;12.30;99.90
13223;DHT22;6676;45.192;5.722;2023-04-01T09:00:04;12.60;99.90
13223;DHT22;6676;45.192;5.722;2023-04-01T09:06:32;13.00;99.90
13223;DHT22;6676;45.192;5.722;2023-04-01T09:09:42;12.90;99.90
13223;DHT22;6676;45.192;5.722;2023-04-01T09:15:51;13.00;99.90
13223;DHT22;6676;45.192;5.722;2023-04-01T09:22:25;13.30;99.90
13223;DHT22;6676;45.192;5.722;2023-04-01T09:28:37;13.70;99.90
13223;DHT22;6676;45.192;5.722;2023-04-01T09:31:51;13.90;99.90
13223;DHT22;6676;45.192;5.722;2023-04-01T09:35:10;14.10;99.90
13223;DHT22;6676;45.192;5.722;2023-04-01T09:38:06;14.40;99.90
13223;DHT22;6676;45.192;5.722;2023-04-01T09:40:58;14.50;99.90
13223;DHT22;6676;45.192;5.722;2023-04-01T09:46:50;14.50;99.90
13223;DHT22;6676;45.192;5.722;2023-04-01T09:49:52;14.20;99.90
13223;DHT22;6676;45.192;5.722;2023-04-01T09:52:48;14.40;99.90
13223;DHT22;6676;45.192;5.722;2023-04-01T09:56:42;14.40;99.90
13223;DHT22;6676;45.192;5.722;2023-04-01T10:10:31;14.50;99.90
13223;DHT22;6676;45.192;5.722;2023-04-01T10:17:38;14.60;99.90
13223;DHT22;6676;45.192;5.722;2023-04-01T10:20:55;14.40;99.90
13223;DHT22;6676;45.192;5.722;2023-04-01T10:24:24;14.40;99.90
13223;DHT22;6676;45.192;5.722;2023-04-01T10:27:27;14.40;99.90
13223;DHT22;6676;45.192;5.722;2023-04-01T10:31:04;14.40;99.90
13223;DHT22;6676;45.192;5.722;2023-04-01T10:34:39;14.40;99.90
13223;DHT22;6676;45.192;5.722;2023-04-01T10:41:10;14.30;99.90
13223;DHT22;6676;45.192;5.722;2023-04-01T10:48:19;14.20;99.90
13223;DHT22;6676;45.192;5.722;2023-04-01T10:51:39;14.00;99.90
13223;DHT22;6676;45.192;5.722;2023-04-01T10:54:46;14.10;99.90
13223;DHT22;6676;45.192;5.722;2023-04-01T10:58:13;14.10;99.90
13223;DHT22;6676;45.192;5.722;2023-04-01T11:01:40;14.20;99.90
13223;DHT22;6676;45.192;5.722;2023-04-01T11:26:06;14.30;99.90
13223;DHT22;6676;45.192;5.722;2023-04-01T11:32:51;14.10;99.90
13223;DHT22;6676;45.192;5.722;2023-04-01T11:36:00;13.90;99.90
13223;DHT22;6676;45.192;5.722;2023-04-01T11:39:05;13.70;99.90
13223;DHT22;6676;45.192;5.722;2023-04-01T11:42:20;13.50;99.90
13223;DHT22;6676;45.192;5.722;2023-04-01T11:45:36;13.60;99.90
13223;DHT22;6676;45.192;5.722;2023-04-01T11:48:52;13.80;99.90
13223;DHT22;6676;45.192;5.722;2023-04-01T11:52:11;13.70;99.90
13223;DHT22;6676;45.192;5.722;2023-04-01T11:55:10;13.80;99.90
13223;DHT22;6676;45.192;5.722;2023-04-01T11:58:29;13.90;99.90
13223;DHT22;6676;45.192;5.722;2023-04-01T12:01:30;14.20;99.90
13223;DHT22;6676;45.192;5.722;2023-04-01T12:04:48;14.20;99.90
13223;DHT22;6676;45.192;5.722;2023-04-01T12:10:54;14.20;99.90
13223;DHT22;6676;45.192;5.722;2023-04-01T12:13:49;14.30;99.90
13223;DHT22;6676;45.192;5.722;2023-04-01T12:16:51;14.60;99.90
13223;DHT22;6676;45.192;5.722;2023-04-01T12:19:46;14.70;99.90
13223;DHT22;6676;45.192;5.722;2023-04-01T12:22:45;14.70;99.90
13223;DHT22;6676;45.192;5.722;2023-04-01T12:29:03;15.50;99.90
13223;DHT22;6676;45.192;5.722;2023-04-01T12:31:59;16.00;99.90
13223;DHT22;6676;45.192;5.722;2023-04-01T12:35:12;15.80;99.90
13223;DHT22;6676;45.192;5.722;2023-04-01T12:41:08;15.90;99.90
13223;DHT22;6676;45.192;5.722;2023-04-01T12:47:33;15.60;99.90
13223;DHT22;6676;45.192;5.722;2023-04-01T12:50:34;15.60;99.90
13223;DHT22;6676;45.192;5.722;2023-04-01T12:53:38;15.80;99.90
13223;DHT22;6676;45.192;5.722;2023-04-01T12:56:35;15.90;99.90
13223;DHT22;6676;45.192;5.722;2023-04-01T12:59:36;15.80;99.90
13223;DHT22;6676;45.192;5.722;2023-04-01T13:02:37;15.90;99.90
13223;DHT22;6676;45.192;5.722;2023-04-01T13:05:42;16.00;99.90
13223;DHT22;6676;45.192;5.722;2023-04-01T13:08:38;15.90;99.90
13223;DHT22;6676;45.192;5.722;2023-04-01T13:11:36;15.80;99.90
13223;DHT22;6676;45.192;5.722;2023-04-01T13:14:41;16.00;99.90
13223;DHT22;6676;45.192;5.722;2023-04-01T13:17:35;16.20;99.90
13223;DHT22;6676;45.192;5.722;2023-04-01T13:20:36;16.20;99.90
13223;DHT22;6676;45.192;5.722;2023-04-01T13:23:35;16.20;99.90
13223;DHT22;6676;45.192;5.722;2023-04-01T13:26:27;16.00;99.90
13223;DHT22;6676;45.192;5.722;2023-04-01T13:29:23;15.80;99.90
13223;DHT22;6676;45.192;5.722;2023-04-01T13:32:27;15.80;99.90
13223;DHT22;6676;45.192;5.722;2023-04-01T13:35:26;15.80;99.90
13223;DHT22;6676;45.192;5.722;2023-04-01T13:38:44;15.70;99.90
13223;DHT22;6676;45.192;5.722;2023-04-01T13:41:45;15.70;99.90
13223;DHT22;6676;45.192;5.722;2023-04-01T13:44:40;15.70;99.90
13223;DHT22;6676;45.192;5.722;2023-04-01T13:48:01;15.70;99.90
13223;DHT22;6676;45.192;5.722;2023-04-01T13:54:22;15.50;99.90
13223;DHT22;6676;45.192;5.722;2023-04-01T13:57:22;15.30;99.90
13223;DHT22;6676;45.192;5.722;2023-04-01T14:03:45;14.90;99.90
13223;DHT22;6676;45.192;5.722;2023-04-01T14:06:43;15.00;99.90
13223;DHT22;6676;45.192;5.722;2023-04-01T14:10:13;14.70;99.90
13223;DHT22;6676;45.192;5.722;2023-04-01T14:13:09;14.60;99.90
13223;DHT22;6676;45.192;5.722;2023-04-01T14:19:30;14.50;99.90
13223;DHT22;6676;45.192;5.722;2023-04-01T14:22:26;14.40;99.90
13223;DHT22;6676;45.192;5.722;2023-04-01T14:25:31;14.30;99.90
13223;DHT22;6676;45.192;5.722;2023-04-01T14:28:29;14.10;99.90
13223;DHT22;6676;45.192;5.722;2023-04-01T14:31:30;13.90;99.90
13223;DHT22;6676;45.192;5.722;2023-04-01T14:34:30;13.80;99.90
13223;DHT22;6676;45.192;5.722;2023-04-01T14:37:36;13.60;99.90
13223;DHT22;6676;45.192;5.722;2023-04-01T14:40:33;13.40;99.90
13223;DHT22;6676;45.192;5.722;2023-04-01T14:50:03;12.80;99.90
13223;DHT22;6676;45.192;5.722;2023-04-01T14:53:11;12.50;99.90
13223;DHT22;6676;45.192;5.722;2023-04-01T14:55:54;12.30;99.90
13223;DHT22;6676;45.192;5.722;2023-04-01T14:58:47;12.10;99.90
13223;DHT22;6676;45.192;5.722;2023-04-01T15:04:41;11.90;99.90
13223;DHT22;6676;45.192;5.722;2023-04-01T15:11:01;11.70;99.90
13223;DHT22;6676;45.192;5.722;2023-04-01T15:14:07;11.70;99.90
13223;DHT22;6676;45.192;5.722;2023-04-01T15:17:05;11.70;99.90
13223;DHT22;6676;45.192;5.722;2023-04-01T15:20:24;11.50;99.90
13223;DHT22;6676;45.192;5.722;2023-04-01T15:23:23;11.50;99.90
13223;DHT22;6676;45.192;5.722;2023-04-01T15:26:20;11.30;99.90
13223;DHT22;6676;45.192;5.722;2023-04-01T15:29:25;11.20;99.90
13223;DHT22;6676;45.192;5.722;2023-04-01T15:32:21;11.20;99.90
13223;DHT22;6676;45.192;5.722;2023-04-01T15:35:21;11.20;99.90
13223;DHT22;6676;45.192;5.722;2023-04-01T15:38:17;11.10;99.90
13223;DHT22;6676;45.192;5.722;2023-04-01T15:41:15;11.00;99.90
13223;DHT22;6676;45.192;5.722;2023-04-01T15:50:36;11.20;99.90
13223;DHT22;6676;45.192;5.722;2023-04-01T15:53:37;11.30;99.90
13223;DHT22;6676;45.192;5.722;2023-04-01T15:56:47;11.40;99.90
13223;DHT22;6676;45.192;5.722;2023-04-01T16:00:08;11.60;99.90
13223;DHT22;6676;45.192;5.722;2023-04-01T16:10:05;13.40;99.90
13223;DHT22;6676;45.192;5.722;2023-04-01T16:13:06;12.60;99.90
13223;DHT22;6676;45.192;5.722;2023-04-01T16:18:53;12.00;99.90
13223;DHT22;6676;45.192;5.722;2023-04-01T16:24:31;11.40;99.90
13223;DHT22;6676;45.192;5.722;2023-04-01T16:27:29;11.30;99.90
13223;DHT22;6676;45.192;5.722;2023-04-01T16:30:35;11.20;99.90
13223;DHT22;6676;45.192;5.722;2023-04-01T16:33:34;11.20;99.90
13223;DHT22;6676;45.192;5.722;2023-04-01T16:36:28;10.80;99.90
13223;DHT22;6676;45.192;5.722;2023-04-01T16:42:15;11.00;99.90
13223;DHT22;6676;45.192;5.722;2023-04-01T16:45:16;11.00;99.90
13223;DHT22;6676;45.192;5.722;2023-04-01T16:48:12;11.10;99.90
13223;DHT22;6676;45.192;5.722;2023-04-01T16:51:10;11.20;99.90
13223;DHT22;6676;45.192;5.722;2023-04-01T16:54:05;11.20;99.90
13223;DHT22;6676;45.192;5.722;2023-04-01T16:57:12;11.20;99.90
13223;DHT22;6676;45.192;5.722;2023-04-01T17:00:03;11.10;99.90
13223;DHT22;6676;45.192;5.722;2023-04-01T17:05:49;11.30;99.90
13223;DHT22;6676;45.192;5.722;2023-04-01T17:08:52;11.40;99.90
13223;DHT22;6676;45.192;5.722;2023-04-01T17:11:46;11.50;99.90
13223;DHT22;6676;45.192;5.722;2023-04-01T17:14:41;11.50;99.90
13223;DHT22;6676;45.192;5.722;2023-04-01T17:17:45;11.50;99.90
13223;DHT22;6676;45.192;5.722;2023-04-01T17:20:40;11.40;99.90
13223;DHT22;6676;45.192;5.722;2023-04-01T17:23:35;11.20;99.90
13223;DHT22;6676;45.192;5.722;2023-04-01T17:26:32;10.90;99.90
13223;DHT22;6676;45.192;5.722;2023-04-01T17:29:27;10.80;99.90
13223;DHT22;6676;45.192;5.722;2023-04-01T17:32:21;10.70;99.90
13223;DHT22;6676;45.192;5.722;2023-04-01T17:35:15;10.50;99.90
13223;DHT22;6676;45.192;5.722;2023-04-01T17:38:16;10.50;99.90
13223;DHT22;6676;45.192;5.722;2023-04-01T17:41:08;10.60;99.90
13223;DHT22;6676;45.192;5.722;2023-04-01T17:44:10;10.50;99.90
13223;DHT22;6676;45.192;5.722;2023-04-01T17:47:17;10.50;99.90
13223;DHT22;6676;45.192;5.722;2023-04-01T17:50:23;10.50;99.90
13223;DHT22;6676;45.192;5.722;2023-04-01T17:53:23;10.50;99.90
13223;DHT22;6676;45.192;5.722;2023-04-01T17:59:37;10.50;99.90
13223;DHT22;6676;45.192;5.722;2023-04-01T18:02:32;10.30;99.90
13223;DHT22;6676;45.192;5.722;2023-04-01T18:05:40;10.30;99.90
13223;DHT22;6676;45.192;5.722;2023-04-01T18:08:49;10.20;99.90
13223;DHT22;6676;45.192;5.722;2023-04-01T18:11:47;10.10;99.90
13223;DHT22;6676;45.192;5.722;2023-04-01T18:17:40;10.10;99.90
13223;DHT22;6676;45.192;5.722;2023-04-01T18:20:37;9.90;99.90
13223;DHT22;6676;45.192;5.722;2023-04-01T18:23:35;9.80;99.90
13223;DHT22;6676;45.192;5.722;2023-04-01T18:26:26;9.80;99.90
13223;DHT22;6676;45.192;5.722;2023-04-01T18:29:26;9.90;99.90
13223;DHT22;6676;45.192;5.722;2023-04-01T18:32:24;9.90;99.90
13223;DHT22;6676;45.192;5.722;2023-04-01T18:35:23;9.90;99.90
13223;DHT22;6676;45.192;5.722;2023-04-01T18:38:16;9.80;99.90
13223;DHT22;6676;45.192;5.722;2023-04-01T18:41:16;9.70;99.90
13223;DHT22;6676;45.192;5.722;2023-04-01T18:44:25;9.50;99.90
13223;DHT22;6676;45.192;5.722;2023-04-01T18:47:23;9.40;99.90
13223;DHT22;6676;45.192;5.722;2023-04-01T18:50:21;9.40;99.90
13223;DHT22;6676;45.192;5.722;2023-04-01T18:53:17;9.30;99.90
13223;DHT22;6676;45.192;5.722;2023-04-01T18:56:11;9.20;99.90
13223;DHT22;6676;45.192;5.722;2023-04-01T18:59:08;9.30;99.90
13223;DHT22;6676;45.192;5.722;2023-04-01T19:04:47;9.20;99.90
13223;DHT22;6676;45.192;5.722;2023-04-01T19:07:48;9.30;99.90
13223;DHT22;6676;45.192;5.722;2023-04-01T19:10:41;9.20;99.90
13223;DHT22;6676;45.192;5.722;2023-04-01T19:13:37;9.10;99.90
13223;DHT22;6676;45.192;5.722;2023-04-01T19:16:37;9.00;99.90
13223;DHT22;6676;45.192;5.722;2023-04-01T19:19:38;9.00;99.90
13223;DHT22;6676;45.192;5.722;2023-04-01T19:22:49;8.90;99.90
13223;DHT22;6676;45.192;5.722;2023-04-01T19:25:41;8.80;99.90
13223;DHT22;6676;45.192;5.722;2023-04-01T19:28:39;8.70;99.90
13223;DHT22;6676;45.192;5.722;2023-04-01T19:31:40;8.70;99.90
13223;DHT22;6676;45.192;5.722;2023-04-01T19:34:37;8.60;99.90
13223;DHT22;6676;45.192;5.722;2023-04-01T19:37:36;8.60;99.90
13223;DHT22;6676;45.192;5.722;2023-04-01T19:43:30;8.50;99.90
13223;DHT22;6676;45.192;5.722;2023-04-01T19:46:25;8.50;99.90
13223;DHT22;6676;45.192;5.722;2023-04-01T19:49:28;8.60;99.90
13223;DHT22;6676;45.192;5.722;2023-04-01T19:52:23;8.60;99.90
13223;DHT22;6676;45.192;5.722;2023-04-01T19:55:22;8.60;99.90
13223;DHT22;6676;45.192;5.722;2023-04-01T19:58:15;8.60;99.90
13223;DHT22;6676;45.192;5.722;2023-04-01T20:01:10;8.60;99.90
13223;DHT22;6676;45.192;5.722;2023-04-01T20:04:05;8.60;99.90
13223;DHT22;6676;45.192;5.722;2023-04-01T20:07:00;8.60;99.90
13223;DHT22;6676;45.192;5.722;2023-04-01T20:09:55;8.60;99.90
13223;DHT22;6676;45.192;5.722;2023-04-01T20:12:49;8.60;99.90
13223;DHT22;6676;45.192;5.722;2023-04-01T20:15:44;8.60;99.90
13223;DHT22;6676;45.192;5.722;2023-04-01T20:18:44;8.60;99.90
13223;DHT22;6676;45.192;5.722;2023-04-01T20:21:37;8.50;99.90
13223;DHT22;6676;45.192;5.722;2023-04-01T20:27:16;8.70;99.90
13223;DHT22;6676;45.192;5.722;2023-04-01T20:30:25;8.70;99.90
13223;DHT22;6676;45.192;5.722;2023-04-01T20:36:16;8.60;99.90
13223;DHT22;6676;45.192;5.722;2023-04-01T20:39:30;8.70;99.90
13223;DHT22;6676;45.192;5.722;2023-04-01T20:42:32;8.80;99.90
13223;DHT22;6676;45.192;5.722;2023-04-01T20:45:32;8.80;99.90
13223;DHT22;6676;45.192;5.722;2023-04-01T20:52:15;8.70;99.90
13223;DHT22;6676;45.192;5.722;2023-04-01T21:01:14;8.90;99.90
13223;DHT22;6676;45.192;5.722;2023-04-01T21:07:14;8.90;99.90
13223;DHT22;6676;45.192;5.722;2023-04-01T21:10:18;9.00;99.90
13223;DHT22;6676;45.192;5.722;2023-04-01T21:16:46;9.10;99.90
13223;DHT22;6676;45.192;5.722;2023-04-01T21:20:00;9.10;99.90
13223;DHT22;6676;45.192;5.722;2023-04-01T21:26:20;9.20;99.90
13223;DHT22;6676;45.192;5.722;2023-04-01T21:32:32;9.10;99.90
13223;DHT22;6676;45.192;5.722;2023-04-01T21:35:29;9.10;99.90
13223;DHT22;6676;45.192;5.722;2023-04-01T21:38:48;9.10;99.90
13223;DHT22;6676;45.192;5.722;2023-04-01T21:41:52;9.10;99.90
13223;DHT22;6676;45.192;5.722;2023-04-01T21:44:55;9.00;99.90
13223;DHT22;6676;45.192;5.722;2023-04-01T21:48:14;8.50;99.90
13223;DHT22;6676;45.192;5.722;2023-04-01T21:58:39;8.30;99.90
13223;DHT22;6676;45.192;5.722;2023-04-01T22:01:57;8.30;99.90
13223;DHT22;6676;45.192;5.722;2023-04-01T22:04:56;8.10;99.90
13223;DHT22;6676;45.192;5.722;2023-04-01T22:07:52;8.10;99.90
13223;DHT22;6676;45.192;5.722;2023-04-01T22:10:48;8.10;99.90
13223;DHT22;6676;45.192;5.722;2023-04-01T22:13:43;8.10;99.90
13223;DHT22;6676;45.192;5.722;2023-04-01T22:16:38;8.10;99.90
13223;DHT22;6676;45.192;5.722;2023-04-01T22:19:34;7.90;99.90
13223;DHT22;6676;45.192;5.722;2023-04-01T22:25:09;7.90;99.90
13223;DHT22;6676;45.192;5.722;2023-04-01T22:28:04;7.90;99.90
13223;DHT22;6676;45.192;5.722;2023-04-01T22:30:58;7.90;99.90
13223;DHT22;6676;45.192;5.722;2023-04-01T22:33:53;7.90;99.90
13223;DHT22;6676;45.192;5.722;2023-04-01T22:42:51;8.20;99.90
13223;DHT22;6676;45.192;5.722;2023-04-01T22:45:59;8.40;99.90